createdAt,value
2022-10-10T00:00:03.181Z,4.8
2022-10-10T00:15:02.605Z,4.6
2022-10-10T00:30:03.047Z,4.4
2022-10-10T00:45:02.464Z,4.2
2022-10-10T01:00:03.068Z,4.0
2022-10-10T01:15:02.337Z,4.0
2022-10-10T01:30:02.799Z,3.8
2022-10-10T01:45:03.211Z,3.7
2022-10-10T02:00:02.679Z,3.5
2022-10-10T02:15:03.124Z,3.5
2022-10-10T02:30:02.520Z,3.4
2022-10-10T02:45:03.093Z,3.2
2022-10-10T03:00:02.428Z,3.2
2022-10-10T03:15:04.384Z,3.2
2022-10-10T03:30:02.275Z,3.3
2022-10-10T03:45:02.754Z,3.1
2022-10-10T04:00:03.164Z,2.9
2022-10-10T04:15:02.603Z,2.8
2022-10-10T04:30:03.094Z,2.7
2022-10-10T04:45:02.501Z,2.5
2022-10-10T05:00:03.108Z,2.5
2022-10-10T05:15:02.409Z,2.5
2022-10-10T05:30:02.841Z,2.5
2022-10-10T05:45:03.243Z,2.6
2022-10-10T06:00:02.691Z,2.7
2022-10-10T06:15:03.168Z,2.8
2022-10-10T06:30:02.611Z,3.1
2022-10-10T06:45:03.128Z,3.4
2022-10-10T07:00:02.465Z,3.9
2022-10-10T07:15:03.135Z,4.6
2022-10-10T07:30:02.380Z,5.5
2022-10-10T07:45:02.804Z,6.7
2022-10-10T08:00:03.277Z,7.8
2022-10-10T08:15:02.773Z,8.7
2022-10-10T08:30:02.192Z,9.8
2022-10-10T08:45:02.587Z,11.3
2022-10-10T09:00:03.150Z,13.7
2022-10-10T09:15:02.961Z,14.7
2022-10-10T09:30:03.083Z,16.3
2022-10-10T09:45:02.346Z,17.2
2022-10-10T10:00:04.670Z,18.1
2022-10-10T10:15:02.243Z,18.7
2022-10-10T10:30:02.649Z,19.3
2022-10-10T10:45:03.219Z,19.8
2022-10-10T11:00:26.568Z,19.5
2022-10-10T11:15:03.153Z,19.7
2022-10-10T11:30:02.423Z,20.0
2022-10-10T11:45:02.891Z,19.1
2022-10-10T12:00:02.288Z,18.7
2022-10-10T12:15:02.755Z,18.7
2022-10-10T12:30:03.231Z,18.6
2022-10-10T12:45:02.645Z,18.4
2022-10-10T13:00:03.195Z,18.5
2022-10-10T13:15:02.537Z,18.3
2022-10-10T13:30:03.196Z,17.8
2022-10-10T13:45:02.411Z,17.7
2022-10-10T14:00:02.869Z,17.9
2022-10-10T14:15:02.298Z,17.7
2022-10-10T14:30:02.754Z,17.3
2022-10-10T14:45:03.359Z,16.8
2022-10-10T15:00:02.663Z,16.4
2022-10-10T15:15:03.199Z,16.0
2022-10-10T15:30:02.548Z,15.4
2022-10-10T15:45:03.181Z,14.8
2022-10-10T16:00:02.418Z,14.4
2022-10-10T16:15:06.885Z,14.1
2022-10-10T16:30:03.293Z,13.9
2022-10-10T16:45:02.721Z,13.7
2022-10-10T17:00:03.240Z,13.6
2022-10-10T17:15:02.563Z,13.0
2022-10-10T17:30:03.240Z,12.4
2022-10-10T17:45:02.475Z,12.0
2022-10-10T18:00:02.924Z,11.8
2022-10-10T18:15:02.319Z,11.5
2022-10-10T18:30:02.771Z,11.1
2022-10-10T18:45:03.262Z,10.7
2022-10-10T19:00:02.648Z,10.2
2022-10-10T19:15:03.239Z,9.9
2022-10-10T19:30:02.529Z,9.3
2022-10-10T19:45:02.969Z,8.8
2022-10-10T20:00:02.411Z,8.7
2022-10-10T20:15:02.855Z,8.5
2022-10-10T20:30:02.275Z,8.3
2022-10-10T20:45:02.721Z,7.9
2022-10-10T21:00:03.284Z,7.7
2022-10-10T21:15:02.592Z,7.5
2022-10-10T21:30:03.022Z,7.3
2022-10-10T21:45:02.450Z,7.2
2022-10-10T22:00:02.917Z,7.1
2022-10-10T22:15:03.360Z,7.0
2022-10-10T22:30:02.790Z,6.8
2022-10-10T22:45:03.276Z,6.6
2022-10-10T23:00:02.828Z,6.1
2022-10-10T23:15:03.312Z,6.0
2022-10-10T23:30:02.559Z,5.8
2022-10-10T23:45:02.987Z,6.0
